createdAt,value
2022-11-10T00:01:32.033Z,13.02
2022-11-10T00:03:35.918Z,13.05
2022-11-10T00:05:39.074Z,13.05
2022-11-10T00:07:41.458Z,13.07
2022-11-10T00:09:43.276Z,13.04
2022-11-10T00:11:46.378Z,13.03
2022-11-10T00:14:07.432Z,12.97
2022-11-10T00:16:29.051Z,12.97
2022-11-10T00:18:31.260Z,12.97
2022-11-10T00:20:33.084Z,12.90
2022-11-10T00:22:35.846Z,12.83
2022-11-10T00:24:38.026Z,12.87
2022-11-10T00:26:39.840Z,12.87
2022-11-10T00:28:42.393Z,12.80
2022-11-10T00:30:46.775Z,12.80
2022-11-10T00:32:48.971Z,12.84
2022-11-10T00:34:50.810Z,12.78
2022-11-10T00:36:53.091Z,12.90
2022-11-10T00:38:55.123Z,12.90
2022-11-10T00:40:58.943Z,12.91
2022-11-10T00:43:01.480Z,12.97
2022-11-10T00:45:03.532Z,12.95
2022-11-10T00:47:05.733Z,12.80
2022-11-10T00:49:07.895Z,12.87
2022-11-10T00:51:26.319Z,12.94
2022-11-10T00:53:28.124Z,12.94
2022-11-10T00:55:30.408Z,12.99
2022-11-10T00:57:32.327Z,12.93
2022-11-10T00:59:34.209Z,12.98
2022-11-10T01:01:37.091Z,12.92
2022-11-10T01:03:39.223Z,13.03
2022-11-10T01:05:41.862Z,13.13
2022-11-10T01:07:43.891Z,13.08
2022-11-10T01:09:45.817Z,13.12
2022-11-10T01:11:47.610Z,12.94
2022-11-10T01:13:51.739Z,13.10
2022-11-10T01:15:53.533Z,13.19
2022-11-10T01:17:56.890Z,13.08
2022-11-10T01:19:59.012Z,13.26
2022-11-10T01:22:01.873Z,13.29
2022-11-10T01:24:03.896Z,13.31
2022-11-10T01:26:07.192Z,13.31
2022-11-10T01:28:08.886Z,13.33
2022-11-10T01:30:11.364Z,13.24
2022-11-10T01:32:13.521Z,13.37
2022-11-10T01:34:15.623Z,13.47
2022-11-10T01:36:17.729Z,13.41
2022-11-10T01:38:19.930Z,13.45
2022-11-10T01:40:21.818Z,13.45
2022-11-10T01:42:28.973Z,13.57
2022-11-10T01:44:31.166Z,13.53
2022-11-10T01:46:33.092Z,13.47
2022-11-10T01:48:47.053Z,13.40
2022-11-10T01:50:49.621Z,13.44
2022-11-10T01:52:55.049Z,13.39
2022-11-10T01:54:56.933Z,13.46
2022-11-10T01:57:05.261Z,13.50
2022-11-10T01:59:12.200Z,13.54
2022-11-10T02:01:14.536Z,13.36
2022-11-10T02:03:29.488Z,13.49
2022-11-10T02:05:31.976Z,13.50
2022-11-10T02:07:34.368Z,13.48
2022-11-10T02:09:36.871Z,13.58
2022-11-10T02:11:40.481Z,13.64
2022-11-10T02:13:43.152Z,13.58
2022-11-10T02:15:45.644Z,13.58
2022-11-10T02:17:48.347Z,13.62
2022-11-10T02:19:51.670Z,13.63
2022-11-10T02:21:53.890Z,13.63
2022-11-10T02:23:55.754Z,13.66
2022-11-10T02:25:58.528Z,13.72
2022-11-10T02:28:00.687Z,13.74
2022-11-10T02:30:05.247Z,13.79
2022-11-10T02:32:07.104Z,13.79
2022-11-10T02:34:09.279Z,13.80
2022-11-10T02:36:11.697Z,13.68
2022-11-10T02:38:14.359Z,13.76
2022-11-10T02:40:16.531Z,13.76
2022-11-10T02:42:18.318Z,13.77
2022-11-10T02:44:20.616Z,13.75
2022-11-10T02:46:23.121Z,13.79
2022-11-10T02:48:24.919Z,13.83
2022-11-10T02:50:27.037Z,13.85
2022-11-10T02:52:29.505Z,13.76
2022-11-10T02:54:31.352Z,13.69
2022-11-10T02:56:33.149Z,13.82
2022-11-10T02:58:35.286Z,13.79
2022-11-10T03:00:37.154Z,13.73
2022-11-10T03:02:39.269Z,13.54
2022-11-10T03:04:41.675Z,13.55
2022-11-10T03:06:43.883Z,13.63
2022-11-10T03:08:46.292Z,13.75
2022-11-10T03:10:48.531Z,13.73
2022-11-10T03:12:55.420Z,13.81
2022-11-10T03:14:57.460Z,13.79
2022-11-10T03:16:59.829Z,13.74
2022-11-10T03:19:01.721Z,13.81
2022-11-10T03:21:03.659Z,13.89
2022-11-10T03:23:06.360Z,13.81
2022-11-10T03:25:09.041Z,13.99
2022-11-10T03:27:10.822Z,13.91
2022-11-10T03:29:12.962Z,13.87
2022-11-10T03:31:14.743Z,13.81
2022-11-10T03:33:17.022Z,13.87
2022-11-10T03:35:19.255Z,13.99
2022-11-10T03:37:21.042Z,13.99
2022-11-10T03:39:24.438Z,13.94
2022-11-10T03:41:26.602Z,14.01
2022-11-10T03:43:28.393Z,13.93
2022-11-10T03:45:30.198Z,13.95
2022-11-10T03:47:32.401Z,13.98
2022-11-10T03:49:34.213Z,14.08
2022-11-10T03:51:36.022Z,14.03
2022-11-10T03:53:38.198Z,14.09
2022-11-10T03:55:39.988Z,14.06
2022-11-10T03:57:41.859Z,14.10
2022-11-10T03:59:44.027Z,14.13
2022-11-10T04:01:46.138Z,14.21
2022-11-10T04:03:51.527Z,14.33
2022-11-10T04:06:12.313Z,14.31
2022-11-10T04:08:35.407Z,14.31
2022-11-10T04:10:37.351Z,14.34
2022-11-10T04:12:57.889Z,14.45
2022-11-10T04:15:18.519Z,14.33
2022-11-10T04:17:20.368Z,14.34
2022-11-10T04:19:22.740Z,14.39
2022-11-10T04:21:24.542Z,14.47
2022-11-10T04:23:35.002Z,14.32
2022-11-10T04:25:57.116Z,14.33
2022-11-10T04:27:58.969Z,14.49
2022-11-10T04:30:00.770Z,14.45
2022-11-10T04:32:03.046Z,14.44
2022-11-10T04:34:07.333Z,14.63
2022-11-10T04:36:11.291Z,14.63
2022-11-10T04:38:13.473Z,14.48
2022-11-10T04:40:15.682Z,14.42
2022-11-10T04:42:17.521Z,14.51
2022-11-10T04:44:19.675Z,14.44
2022-11-10T04:46:34.952Z,14.53
2022-11-10T04:48:36.873Z,14.33
2022-11-10T04:50:39.132Z,14.49
2022-11-10T04:52:40.929Z,14.47
2022-11-10T04:54:43.082Z,14.58
2022-11-10T04:56:45.275Z,14.69
2022-11-10T04:58:48.236Z,14.77
2022-11-10T05:00:50.004Z,14.73
2022-11-10T05:02:52.211Z,14.76
2022-11-10T05:04:54.060Z,14.71
2022-11-10T05:06:56.019Z,14.59
2022-11-10T05:08:58.220Z,14.50
2022-11-10T05:11:00.277Z,14.54
2022-11-10T05:13:03.340Z,14.56
2022-11-10T05:15:06.270Z,14.37
2022-11-10T05:17:08.060Z,14.51
2022-11-10T05:19:10.036Z,14.49
2022-11-10T05:21:12.142Z,14.50
2022-11-10T05:23:32.386Z,14.54
2022-11-10T05:25:36.445Z,14.56
2022-11-10T05:27:38.657Z,14.58
2022-11-10T05:29:40.457Z,14.51
2022-11-10T05:31:42.288Z,14.62
2022-11-10T05:33:44.641Z,14.48
2022-11-10T05:35:49.017Z,14.42
2022-11-10T05:37:51.604Z,14.55
2022-11-10T05:39:53.798Z,14.53
2022-11-10T05:41:55.683Z,14.45
2022-11-10T05:43:57.459Z,14.51
2022-11-10T05:45:59.948Z,14.32
2022-11-10T05:48:01.782Z,14.49
2022-11-10T05:50:04.739Z,14.48
2022-11-10T05:52:06.868Z,14.46
2022-11-10T05:54:09.099Z,14.41
2022-11-10T05:56:10.862Z,14.51
2022-11-10T05:58:13.587Z,14.53
2022-11-10T06:00:18.349Z,14.48
2022-11-10T06:02:20.348Z,14.48
2022-11-10T06:04:22.649Z,14.47
2022-11-10T06:06:25.044Z,14.44
2022-11-10T06:08:26.864Z,14.45
2022-11-10T06:10:29.290Z,14.50
2022-11-10T06:12:31.128Z,14.52
2022-11-10T06:14:33.014Z,14.53
2022-11-10T06:16:35.386Z,14.48
2022-11-10T06:18:37.170Z,14.55
2022-11-10T06:20:39.068Z,14.51
2022-11-10T06:22:41.624Z,14.55
2022-11-10T06:24:43.467Z,14.61
2022-11-10T06:26:45.288Z,14.57
2022-11-10T06:28:47.471Z,14.55
2022-11-10T06:30:49.268Z,14.46
2022-11-10T06:32:51.179Z,14.57
2022-11-10T06:34:57.838Z,14.62
2022-11-10T06:37:02.117Z,14.69
2022-11-10T06:39:07.073Z,14.57
2022-11-10T06:41:09.721Z,14.66
2022-11-10T06:43:11.882Z,14.47
2022-11-10T06:45:13.719Z,14.64
2022-11-10T06:47:16.464Z,14.57
2022-11-10T06:49:18.432Z,14.70
2022-11-10T06:51:20.225Z,14.64
2022-11-10T06:53:26.861Z,14.75
2022-11-10T06:55:29.525Z,14.78
2022-11-10T06:57:38.142Z,14.75
2022-11-10T06:59:40.269Z,14.95
2022-11-10T07:01:42.247Z,14.90
2022-11-10T07:04:05.202Z,14.98
2022-11-10T07:06:06.956Z,15.01
2022-11-10T07:08:17.497Z,15.03
2022-11-10T07:10:19.312Z,15.04
2022-11-10T07:12:21.663Z,14.99
2022-11-10T07:14:23.477Z,15.06
2022-11-10T07:16:25.305Z,15.05
2022-11-10T07:18:27.432Z,15.05
2022-11-10T07:20:30.383Z,14.94
2022-11-10T07:22:32.410Z,15.04
2022-11-10T07:24:34.937Z,15.03
2022-11-10T07:26:36.785Z,15.11
2022-11-10T07:28:39.093Z,15.11
2022-11-10T07:30:41.675Z,15.14
2022-11-10T07:32:43.859Z,15.08
2022-11-10T07:34:46.034Z,15.04
2022-11-10T07:36:48.412Z,15.04
2022-11-10T07:38:50.210Z,15.08
2022-11-10T07:40:53.896Z,15.30
2022-11-10T07:42:56.142Z,15.29
2022-11-10T07:44:57.960Z,15.32
2022-11-10T07:46:59.969Z,15.38
2022-11-10T07:49:02.202Z,15.43
2022-11-10T07:51:04.598Z,15.43
2022-11-10T07:53:08.694Z,15.48
2022-11-10T07:55:11.040Z,15.52
2022-11-10T07:57:12.927Z,15.57
2022-11-10T07:59:14.809Z,15.55
2022-11-10T08:01:17.079Z,15.63
2022-11-10T08:03:21.782Z,15.55
2022-11-10T08:05:24.012Z,15.53
2022-11-10T08:07:26.236Z,15.32
2022-11-10T08:09:28.449Z,15.54
2022-11-10T08:11:30.370Z,15.65
2022-11-10T08:13:32.588Z,15.57
2022-11-10T08:15:35.070Z,15.43
2022-11-10T08:17:36.969Z,15.54
2022-11-10T08:19:39.098Z,15.56
2022-11-10T08:21:40.926Z,15.55
2022-11-10T08:23:42.902Z,15.63
2022-11-10T08:25:46.848Z,15.60
2022-11-10T08:27:48.735Z,15.54
2022-11-10T08:29:50.594Z,15.67
2022-11-10T08:31:53.273Z,15.53
2022-11-10T08:33:55.088Z,15.55
2022-11-10T08:35:56.927Z,15.52
2022-11-10T08:37:59.044Z,15.64
2022-11-10T08:40:00.850Z,15.64
2022-11-10T08:42:02.825Z,15.65
2022-11-10T08:44:08.167Z,15.77
2022-11-10T08:46:12.658Z,15.84
2022-11-10T08:48:16.832Z,15.73
2022-11-10T08:50:19.110Z,15.76
2022-11-10T08:52:20.927Z,15.87
2022-11-10T08:54:22.779Z,15.92
2022-11-10T08:56:24.924Z,15.85
2022-11-10T08:58:26.814Z,16.02
2022-11-10T09:00:30.708Z,15.94
2022-11-10T09:02:32.908Z,15.90
2022-11-10T09:04:34.782Z,16.13
2022-11-10T09:06:36.630Z,16.13
2022-11-10T09:08:38.899Z,16.28
2022-11-10T09:10:51.100Z,16.26
2022-11-10T09:12:52.978Z,16.21
2022-11-10T09:14:55.825Z,16.41
2022-11-10T09:16:57.658Z,16.53
2022-11-10T09:18:59.498Z,16.47
2022-11-10T09:21:03.577Z,16.29
2022-11-10T09:23:13.958Z,16.53
2022-11-10T09:25:16.133Z,16.47
2022-11-10T09:27:18.582Z,16.31
2022-11-10T09:29:21.295Z,16.50
2022-11-10T09:31:23.599Z,16.54
2022-11-10T09:33:26.325Z,16.52
2022-11-10T09:35:28.510Z,16.43
2022-11-10T09:37:30.823Z,16.45
2022-11-10T09:39:33.296Z,16.47
2022-11-10T09:41:40.196Z,16.36
2022-11-10T09:43:58.445Z,16.57
2022-11-10T09:46:04.930Z,16.47
2022-11-10T09:48:31.254Z,16.55
2022-11-10T09:51:11.013Z,16.58
2022-11-10T09:53:21.411Z,16.67
2022-11-10T09:55:52.301Z,16.77
2022-11-10T09:57:57.111Z,16.83
2022-11-10T09:59:59.692Z,16.91
2022-11-10T10:02:16.427Z,16.90
2022-11-10T10:04:56.004Z,16.95
2022-11-10T10:07:22.932Z,16.76
2022-11-10T10:10:00.079Z,16.76
2022-11-10T10:12:28.270Z,16.72
2022-11-10T10:14:58.595Z,16.90
2022-11-10T10:17:04.463Z,17.10
2022-11-10T10:19:14.015Z,17.16
2022-11-10T10:21:49.298Z,17.20
2022-11-10T10:24:15.240Z,17.27
2022-11-10T10:26:21.676Z,17.36
2022-11-10T10:28:23.958Z,17.40
2022-11-10T10:30:26.090Z,17.39
2022-11-10T10:32:28.879Z,17.63
2022-11-10T10:34:34.612Z,17.57
2022-11-10T10:36:36.504Z,17.85
2022-11-10T10:38:40.221Z,17.88
2022-11-10T10:40:44.288Z,18.01
2022-11-10T10:42:46.605Z,17.99
2022-11-10T10:45:18.490Z,18.16
2022-11-10T10:47:36.149Z,17.81
2022-11-10T10:49:37.967Z,17.87
2022-11-10T10:51:40.449Z,17.91
2022-11-10T10:53:47.694Z,17.91
2022-11-10T10:56:02.210Z,18.08
2022-11-10T10:58:20.327Z,18.27
2022-11-10T11:00:23.544Z,18.19
2022-11-10T11:02:29.861Z,18.10
2022-11-10T11:04:37.032Z,18.31
2022-11-10T11:06:39.003Z,18.22
2022-11-10T11:08:58.172Z,18.32
2022-11-10T11:11:11.571Z,18.21
2022-11-10T11:13:27.251Z,18.37
2022-11-10T11:15:30.465Z,18.06
2022-11-10T11:17:32.689Z,18.07
2022-11-10T11:19:37.512Z,18.00
2022-11-10T11:21:50.638Z,18.03
2022-11-10T11:24:10.900Z,18.25
2022-11-10T11:26:50.432Z,18.33
2022-11-10T11:29:21.618Z,18.46
2022-11-10T11:31:43.222Z,18.51
2022-11-10T11:34:10.087Z,18.67
2022-11-10T11:36:46.821Z,18.58
2022-11-10T11:39:04.298Z,18.45
2022-11-10T11:41:30.690Z,18.46
2022-11-10T11:43:57.688Z,18.49
2022-11-10T11:46:12.580Z,18.38
2022-11-10T11:48:39.022Z,18.05
2022-11-10T11:50:50.596Z,18.21
2022-11-10T11:53:19.009Z,18.12
2022-11-10T11:55:34.071Z,18.15
2022-11-10T11:57:44.193Z,17.87
2022-11-10T12:00:06.018Z,17.96
2022-11-10T12:02:50.100Z,18.12
2022-11-10T12:05:13.302Z,18.08
2022-11-10T12:07:35.652Z,18.31
2022-11-10T12:09:46.185Z,18.36
2022-11-10T12:12:13.782Z,18.45
2022-11-10T12:14:34.934Z,18.61
2022-11-10T12:16:38.698Z,18.43
2022-11-10T12:19:22.406Z,18.15
2022-11-10T12:21:28.195Z,18.38
2022-11-10T12:23:47.954Z,18.48
2022-11-10T12:25:59.851Z,18.26
2022-11-10T12:28:14.254Z,17.93
2022-11-10T12:30:17.769Z,18.11
2022-11-10T12:32:28.347Z,18.14
2022-11-10T12:34:48.189Z,18.09
2022-11-10T12:36:51.794Z,18.17
2022-11-10T12:39:01.340Z,18.20
2022-11-10T12:41:11.139Z,18.15
2022-11-10T12:43:44.066Z,18.09
2022-11-10T12:45:51.218Z,18.12
2022-11-10T12:47:54.486Z,18.17
2022-11-10T12:50:11.652Z,18.13
2022-11-10T12:52:13.779Z,18.01
2022-11-10T12:54:17.917Z,17.77
2022-11-10T12:56:31.897Z,17.83
2022-11-10T12:58:34.175Z,17.95
2022-11-10T13:00:44.114Z,17.99
2022-11-10T13:02:46.951Z,18.01
2022-11-10T13:05:10.055Z,17.96
2022-11-10T13:07:13.797Z,18.08
2022-11-10T13:09:29.442Z,17.96
2022-11-10T13:11:34.804Z,17.96
2022-11-10T13:13:59.457Z,17.81
2022-11-10T13:16:01.838Z,17.75
2022-11-10T13:18:05.613Z,17.85
2022-11-10T13:20:39.305Z,17.54
2022-11-10T13:22:41.668Z,17.44
2022-11-10T13:24:44.494Z,17.36
2022-11-10T13:26:49.796Z,17.45
2022-11-10T13:28:51.603Z,17.46
2022-11-10T13:30:53.773Z,17.26
2022-11-10T13:33:15.648Z,17.41
2022-11-10T13:35:29.736Z,17.38
2022-11-10T13:37:34.671Z,17.35
2022-11-10T13:39:36.683Z,17.39
2022-11-10T13:41:48.460Z,17.11
2022-11-10T13:43:53.251Z,17.27
2022-11-10T13:46:03.677Z,17.15
2022-11-10T13:48:11.549Z,17.09
2022-11-10T13:50:28.762Z,17.08
2022-11-10T13:52:43.028Z,17.08
2022-11-10T13:54:58.851Z,17.14
2022-11-10T13:57:11.816Z,17.14
2022-11-10T13:59:28.961Z,17.06
2022-11-10T14:01:30.987Z,17.21
2022-11-10T14:03:45.387Z,17.14
2022-11-10T14:06:04.778Z,17.20
2022-11-10T14:08:09.596Z,17.24
2022-11-10T14:10:17.125Z,17.11
2022-11-10T14:12:28.725Z,17.10
2022-11-10T14:14:35.699Z,16.98
2022-11-10T14:16:42.314Z,16.93
2022-11-10T14:19:22.964Z,16.89
2022-11-10T14:21:33.522Z,16.64
2022-11-10T14:23:45.505Z,16.65
2022-11-10T14:25:55.982Z,16.53
2022-11-10T14:27:58.624Z,16.28
2022-11-10T14:30:24.672Z,16.32
2022-11-10T14:32:27.011Z,16.27
2022-11-10T14:34:30.635Z,16.36
2022-11-10T14:36:33.072Z,16.15
2022-11-10T14:38:37.206Z,16.08
2022-11-10T14:40:41.941Z,15.97
2022-11-10T14:42:45.857Z,15.91
2022-11-10T14:44:48.793Z,15.69
2022-11-10T14:46:51.328Z,15.72
2022-11-10T14:48:58.589Z,15.69
2022-11-10T14:51:07.211Z,15.66
2022-11-10T14:53:20.879Z,15.62
2022-11-10T14:55:27.785Z,15.62
2022-11-10T14:57:29.828Z,15.59
2022-11-10T14:59:31.885Z,15.42
2022-11-10T15:01:38.401Z,15.50
2022-11-10T15:03:42.573Z,15.53
2022-11-10T15:05:44.829Z,15.48
2022-11-10T15:07:47.661Z,15.47
2022-11-10T15:10:30.932Z,15.52
2022-11-10T15:12:35.852Z,15.35
2022-11-10T15:14:45.650Z,15.30
2022-11-10T15:17:04.253Z,15.27
2022-11-10T15:19:26.874Z,15.23
2022-11-10T15:21:34.054Z,15.25
2022-11-10T15:23:40.911Z,15.28
2022-11-10T15:25:42.857Z,15.33
2022-11-10T15:28:00.884Z,15.31
2022-11-10T15:30:19.949Z,15.33
2022-11-10T15:32:24.973Z,15.25
2022-11-10T15:35:06.398Z,15.13
2022-11-10T15:37:31.216Z,15.20
2022-11-10T15:39:33.937Z,15.15
2022-11-10T15:41:36.969Z,15.33
2022-11-10T15:43:38.914Z,15.35
2022-11-10T15:45:43.407Z,15.34
2022-11-10T15:47:46.475Z,15.29
2022-11-10T15:49:48.523Z,15.16
2022-11-10T15:51:53.066Z,15.13
2022-11-10T15:53:55.136Z,15.18
2022-11-10T15:55:57.402Z,15.04
2022-11-10T15:57:59.519Z,15.05
2022-11-10T16:00:01.736Z,14.97
2022-11-10T16:02:25.347Z,15.00
2022-11-10T16:04:27.607Z,15.18
2022-11-10T16:06:30.807Z,15.24
2022-11-10T16:08:34.766Z,15.10
2022-11-10T16:10:37.453Z,15.26
2022-11-10T16:12:39.417Z,15.36
2022-11-10T16:14:45.490Z,15.26
2022-11-10T16:16:47.911Z,15.36
2022-11-10T16:18:51.399Z,15.31
2022-11-10T16:20:53.533Z,15.44
2022-11-10T16:22:55.999Z,15.44
2022-11-10T16:24:57.795Z,15.45
2022-11-10T16:26:59.811Z,15.36
2022-11-10T16:29:02.153Z,15.50
2022-11-10T16:31:08.418Z,15.43
2022-11-10T16:33:18.342Z,15.63
2022-11-10T16:35:21.009Z,15.53
2022-11-10T16:37:22.868Z,15.65
2022-11-10T16:39:25.348Z,15.61
2022-11-10T16:41:27.621Z,15.66
2022-11-10T16:43:31.092Z,15.73
2022-11-10T16:45:33.849Z,15.67
2022-11-10T16:47:36.011Z,15.64
2022-11-10T16:49:44.052Z,15.53
2022-11-10T16:51:49.007Z,15.58
2022-11-10T16:53:53.190Z,15.52
2022-11-10T16:55:55.376Z,15.45
2022-11-10T16:57:57.776Z,15.64
2022-11-10T17:00:00.247Z,15.66
2022-11-10T17:02:02.167Z,15.64
2022-11-10T17:04:10.224Z,15.66
2022-11-10T17:06:14.200Z,15.74
2022-11-10T17:08:23.234Z,15.78
2022-11-10T17:10:25.230Z,15.71
2022-11-10T17:12:27.596Z,15.73
2022-11-10T17:14:29.387Z,15.57
2022-11-10T17:16:35.770Z,15.49
2022-11-10T17:18:38.150Z,15.46
2022-11-10T17:20:41.995Z,15.51
2022-11-10T17:22:44.245Z,15.47
2022-11-10T17:24:56.152Z,15.54
2022-11-10T17:26:58.091Z,15.46
2022-11-10T17:29:01.062Z,15.37
2022-11-10T17:31:03.626Z,15.30
2022-11-10T17:33:06.001Z,15.14
2022-11-10T17:35:08.328Z,14.97
2022-11-10T17:37:13.283Z,14.91
2022-11-10T17:39:16.765Z,14.85
2022-11-10T17:41:20.211Z,14.87
2022-11-10T17:43:23.826Z,14.74
2022-11-10T17:45:28.115Z,14.71
2022-11-10T17:47:30.193Z,14.67
2022-11-10T17:49:32.608Z,14.64
2022-11-10T17:51:36.052Z,14.58
2022-11-10T17:53:38.086Z,14.52
2022-11-10T17:55:40.271Z,14.52
2022-11-10T17:57:42.562Z,14.44
2022-11-10T17:59:44.365Z,14.43
2022-11-10T18:01:46.826Z,14.41
2022-11-10T18:03:50.104Z,14.32
2022-11-10T18:05:52.742Z,14.32
2022-11-10T18:07:55.292Z,14.24
2022-11-10T18:09:57.285Z,14.26
2022-11-10T18:11:59.119Z,14.24
2022-11-10T18:14:02.391Z,14.23
2022-11-10T18:16:05.481Z,14.29
2022-11-10T18:18:11.183Z,14.19
2022-11-10T18:20:14.810Z,14.02
2022-11-10T18:22:16.733Z,13.97
2022-11-10T18:24:18.579Z,13.88
2022-11-10T18:26:20.740Z,13.87
2022-11-10T18:28:22.542Z,13.75
2022-11-10T18:30:24.399Z,13.73
2022-11-10T18:32:26.919Z,13.79
2022-11-10T18:34:28.753Z,13.76
2022-11-10T18:36:30.548Z,13.74
2022-11-10T18:38:32.911Z,13.73
2022-11-10T18:40:34.814Z,13.70
2022-11-10T18:42:36.803Z,13.67
2022-11-10T18:44:39.665Z,13.68
2022-11-10T18:46:41.810Z,13.65
2022-11-10T18:48:45.776Z,13.51
2022-11-10T18:50:47.949Z,13.61
2022-11-10T18:52:49.810Z,13.57
2022-11-10T18:54:51.621Z,13.50
2022-11-10T18:56:54.350Z,13.53
2022-11-10T18:58:57.055Z,13.51
2022-11-10T19:01:06.657Z,13.43
2022-11-10T19:03:09.048Z,13.38
2022-11-10T19:05:11.037Z,13.37
2022-11-10T19:07:12.963Z,13.29
2022-11-10T19:09:15.542Z,13.22
2022-11-10T19:11:20.104Z,13.17
2022-11-10T19:13:23.495Z,13.26
2022-11-10T19:15:25.989Z,13.17
2022-11-10T19:17:27.830Z,13.18
2022-11-10T19:19:29.727Z,13.16
2022-11-10T19:21:32.090Z,13.11
2022-11-10T19:23:34.019Z,13.05
2022-11-10T19:25:35.999Z,13.01
2022-11-10T19:27:38.258Z,13.04
2022-11-10T19:29:40.314Z,13.02
2022-11-10T19:31:42.391Z,13.04
2022-11-10T19:33:46.527Z,13.05
2022-11-10T19:35:48.319Z,13.05
2022-11-10T19:37:53.850Z,13.12
2022-11-10T19:39:56.029Z,13.03
2022-11-10T19:41:57.791Z,13.00
2022-11-10T19:44:00.341Z,12.87
2022-11-10T19:46:04.269Z,12.93
2022-11-10T19:48:06.097Z,12.98
2022-11-10T19:50:08.458Z,12.90
2022-11-10T19:52:10.703Z,12.92
2022-11-10T19:54:13.679Z,12.88
2022-11-10T19:56:17.287Z,12.88
2022-11-10T19:58:19.443Z,12.67
2022-11-10T20:00:21.370Z,12.77
2022-11-10T20:02:23.365Z,12.79
2022-11-10T20:04:26.811Z,12.76
2022-11-10T20:06:28.556Z,12.77
2022-11-10T20:08:31.003Z,12.78
2022-11-10T20:10:33.296Z,12.61
2022-11-10T20:12:35.109Z,12.69
2022-11-10T20:14:36.918Z,12.59
2022-11-10T20:16:39.087Z,12.65
2022-11-10T20:18:41.677Z,12.68
2022-11-10T20:20:43.459Z,12.65
2022-11-10T20:22:45.801Z,12.64
2022-11-10T20:24:51.154Z,12.63
2022-11-10T20:26:53.126Z,12.48
2022-11-10T20:28:55.382Z,12.49
2022-11-10T20:31:00.891Z,12.56
2022-11-10T20:33:05.085Z,12.50
2022-11-10T20:35:07.423Z,12.41
2022-11-10T20:37:09.226Z,12.44
2022-11-10T20:39:11.186Z,12.43
2022-11-10T20:41:19.958Z,12.38
2022-11-10T20:43:22.172Z,12.38
2022-11-10T20:45:24.302Z,12.33
2022-11-10T20:47:28.738Z,12.38
2022-11-10T20:49:31.015Z,12.35
2022-11-10T20:51:32.847Z,12.31
2022-11-10T20:53:35.052Z,12.32
2022-11-10T20:55:53.190Z,12.29
2022-11-10T20:57:55.796Z,12.13
2022-11-10T20:59:58.063Z,12.25
2022-11-10T21:02:00.025Z,12.14
2022-11-10T21:04:02.631Z,12.24
2022-11-10T21:06:06.195Z,12.30
2022-11-10T21:08:08.130Z,12.27
2022-11-10T21:10:10.030Z,12.24
2022-11-10T21:12:31.594Z,12.23
2022-11-10T21:14:33.467Z,12.18
2022-11-10T21:16:35.359Z,12.18
2022-11-10T21:18:37.909Z,12.15
2022-11-10T21:20:39.688Z,12.14
2022-11-10T21:22:41.483Z,12.15
2022-11-10T21:24:43.702Z,12.18
2022-11-10T21:26:45.488Z,12.16
2022-11-10T21:28:47.673Z,12.16
2022-11-10T21:30:50.710Z,12.11
2022-11-10T21:32:52.525Z,12.00
2022-11-10T21:34:54.348Z,12.03
2022-11-10T21:36:56.499Z,11.95
2022-11-10T21:38:59.159Z,12.03
2022-11-10T21:41:00.958Z,12.08
2022-11-10T21:43:03.740Z,12.03
2022-11-10T21:45:06.650Z,12.08
2022-11-10T21:47:09.912Z,12.08
2022-11-10T21:49:12.134Z,12.06
2022-11-10T21:51:16.552Z,11.99
2022-11-10T21:53:18.357Z,11.99
2022-11-10T21:55:20.758Z,11.99
2022-11-10T21:57:22.574Z,11.85
2022-11-10T21:59:24.356Z,11.94
2022-11-10T22:01:26.621Z,11.95
2022-11-10T22:03:29.642Z,12.03
2022-11-10T22:05:33.354Z,11.98
2022-11-10T22:07:38.297Z,11.90
2022-11-10T22:09:58.662Z,12.01
2022-11-10T22:12:18.802Z,12.14
2022-11-10T22:14:39.714Z,12.15
2022-11-10T22:17:08.283Z,12.09
2022-11-10T22:19:10.089Z,12.25
2022-11-10T22:21:12.708Z,12.21
2022-11-10T22:23:14.692Z,12.24
2022-11-10T22:25:16.488Z,12.16
2022-11-10T22:27:18.637Z,12.06
2022-11-10T22:29:21.804Z,11.95
2022-11-10T22:31:23.797Z,12.01
2022-11-10T22:33:28.828Z,12.01
2022-11-10T22:35:46.064Z,12.09
2022-11-10T22:37:47.832Z,12.02
2022-11-10T22:40:08.875Z,12.07
2022-11-10T22:42:32.118Z,12.01
2022-11-10T22:44:33.969Z,12.09
2022-11-10T22:46:48.105Z,12.03
2022-11-10T22:48:50.006Z,11.98
2022-11-10T22:50:59.452Z,11.92
2022-11-10T22:53:01.601Z,12.00
2022-11-10T22:55:03.484Z,11.92
2022-11-10T22:57:05.460Z,11.90
2022-11-10T22:59:08.070Z,11.94
2022-11-10T23:01:11.378Z,11.89
2022-11-10T23:03:14.189Z,12.01
2022-11-10T23:05:16.549Z,11.93
2022-11-10T23:07:18.357Z,11.96
2022-11-10T23:09:20.343Z,11.92
2022-11-10T23:11:25.539Z,11.87
2022-11-10T23:13:27.994Z,11.94
2022-11-10T23:15:34.664Z,11.89
2022-11-10T23:17:36.846Z,11.93
2022-11-10T23:19:38.678Z,11.79
2022-11-10T23:21:40.521Z,11.90
2022-11-10T23:23:43.585Z,11.98
2022-11-10T23:25:55.516Z,11.98
2022-11-10T23:27:57.295Z,11.96
2022-11-10T23:29:59.444Z,12.01
2022-11-10T23:32:01.276Z,11.95
2022-11-10T23:34:03.167Z,11.95
2022-11-10T23:36:06.580Z,11.88
2022-11-10T23:38:08.646Z,11.94
2022-11-10T23:40:10.841Z,11.97
2022-11-10T23:42:13.015Z,11.91
2022-11-10T23:44:14.783Z,11.93
2022-11-10T23:46:16.550Z,11.93
2022-11-10T23:48:19.500Z,11.93
2022-11-10T23:50:21.367Z,11.85
2022-11-10T23:52:23.134Z,12.05
2022-11-10T23:54:25.306Z,11.97
2022-11-10T23:56:27.111Z,12.06
2022-11-10T23:58:29.786Z,12.10
